KTVF

Thief River Falls Regional Airport

Thief River Falls, Minnesota, USA
KTVF 192336Z 2000/2024 35012KT P6SM SCT150 FM201100 05009KT P6SM BKN250 FM201600 05014G22KT P6SM VCSH OVC050 FM202100 04015KT 6SM -RA OVC015
Issued Valid From Valid To
Sep-19 @ 23:36 UTC
(an hour ago)
Sep-20 @ 00:00 UTC
(42 minutes ago)
Sep-21 @ 00:00 UTC
(in 23 hours)
Sep-20 @ 00:00 to Sep-20 @ 11:00
KTVF 192336Z 2000/2024 35012KT P6SM SCT150
Wind Visibility Clouds
350° at 12 knots Greater than 6 miles
  • Scattered at 15,000' AGL
From Sep-20 @ 11:00 to Sep-20 @ 16:00
FM201100 05009KT P6SM BKN250
Wind Visibility Clouds
50° at 9 knots Greater than 6 miles
  • Broken at 25,000' AGL
From Sep-20 @ 16:00 to Sep-20 @ 21:00
FM201600 05014G22KT P6SM VCSH OVC050
Wind Visibility Clouds
50° at 14 knots
 Gusting to 22 knots
Greater than 6 miles
  • Overcast at 5,000' AGL
From Sep-20 @ 21:00 to Sep-21 @ 00:00
FM202100 04015KT 6SM -RA OVC015
Wind Visibility Clouds Conditions
40° at 15 knots 6 miles
  • Overcast at 1,500' AGL
  • Light Rain
KTVF 192336Z 2000/2024 35012KT P6SM SCT150 FM201100 05009KT P6SM BKN250 FM201600 05014G22KT P6SM VCSH OVC050 FM202100 04015KT 6SM -RA OVC015
Issued Sep-19 @ 23:36 UTC
(an hour ago)
Valid From Sep-20 @ 00:00 UTC
(42 minutes ago)
Valid To Sep-21 @ 00:00 UTC
(in 23 hours)
Sep-20 @ 00:00 - Sep-20 @ 11:00
Wind Visibility
350° at 12 knots Greater than 6 miles
Clouds
  • Scattered at 15,000' AGL
From Sep-20 @ 11:00 - Sep-20 @ 16:00
Wind Visibility
50° at 9 knots Greater than 6 miles
Clouds
  • Broken at 25,000' AGL
From Sep-20 @ 16:00 - Sep-20 @ 21:00
Wind Visibility
50° at 14 knots
 Gusting to 22 knots
Greater than 6 miles
Clouds
  • Overcast at 5,000' AGL
From Sep-20 @ 21:00 - Sep-21 @ 00:00
Wind Visibility
40° at 15 knots 6 miles
Clouds
  • Overcast at 1,500' AGL
Conditions
  • Light Rain